x

Freeport, Tx - 60 Nm South Of Freeport, Tx (42019) Wave Buoy

11:50am - Sun 1st Feb 2015 All times are CST. -6 hours from GMT.

  • Sig Wave height 3.9ft
  • Swell Direction
  • Peak Period 6s
  • Average Period 5s
  • Wind
    9mph, 11mph gusts
  • Sea Temp 68°f
  • Air Temp 70°f
  • Sea Pressure 1014.7mb
  • Freeport, Tx - 60 Nm South Of Freeport, Tx
  • Freeport, Tx - 60 Nm South Of Freeport, Tx

More Historic Weather Station data

Upgrade to MSW Pro to gain access to the past 30 days of data for over 8000 Wavebouys and Weather Stations around the globe.

Join Pro

Comparision Forecast

View Surf forecast
   
Sun 02/01 11:50am 4ft 6s 5s 9 11 mph 1014.7mb 68f 70f
10:50am 4.5ft 6s 5s 7 9 mph 1015.4mb 68f 69f
9:50am 5ft 7s 5s 11
mph
1015.1mb 68f 69f
8:50am 5ft 6s 5s 7
mph
1014.7mb 68f 69f
7:50am 5ft 6s 5s 7 9 mph 1014.5mb 68f 69f
6:50am 5ft 6s 5s 11
mph
1014mb 68f 69f
5:50am 5.5ft 6s 5s 11 13 mph 1013.6mb 68f 69f
4:50am 6.5ft 6s 5s 13 18 mph 1012.7mb 68f 69f
3:50am 7ft 6s 5s 27 34 mph 1010.9mb 68f 70f
2:50am 6ft 6s 5s 27 34 mph 1011mb 68f 69f
1:50am 5ft 6s 5s 27 34 mph 1012.7mb 68f 69f
12:50am 4.5ft 7s 5s 18 22 mph 1014.2mb 68f 69f
Sat 01/31 11:50pm 4.5ft 7s 5s 18 20 mph 1015.5mb 68f 69f
10:50pm 4.5ft 7s 5s 16 20 mph 1016mb 68f 69f
9:50pm 5ft 6s 5s 13 16 mph 1016.6mb 68f 69f
8:50pm 5ft 7s 5s 13 18 mph 1016.7mb 68f 69f
7:50pm 4.5ft 6s 5s 16 18 mph 1016.3mb 68f 69f
6:50pm 5ft 6s 5s 18 22 mph 1015.5mb 68f 69f
5:50pm 5ft 6s 5s 18 22 mph 1015.3mb 68f 69f
4:50pm 4.5ft 6s 5s 16 20 mph 1015.7mb 68f 69f
3:50pm 4.5ft 7s 5s 16 20 mph 1016.2mb 68f 69f
2:50pm 5ft 6s 5s 20 22 mph 1016.6mb 68f 69f
1:50pm 5ft 7s 5s 20 25 mph 1017.5mb 68f 69f
12:50pm 5ft 7s 5s 18 22 mph 1019mb 68f 69f
11:50am 5ft 6s 5s 18 22 mph 1020mb 68f 68f
10:50am 4.5ft 5s 4s 20 22 mph 1020.7mb 68f 68f
9:50am 4.5ft 6s 4s 20 22 mph 1020.9mb 68f 67f
8:50am 4.5ft 6s 4s 20 22 mph 1020.8mb 68f 67f
7:50am 4.5ft 5s 5s 20 22 mph 1020.8mb 68f 67f
6:50am 4.5ft 5s 5s 16 20 mph 1020.8mb 68f 66f
5:50am 4.5ft 5s 5s 18 22 mph 1020.6mb 68f 66f
4:50am 4.5ft 6s 4s 20 25 mph 1020.6mb 68f 66f
3:50am 4.5ft 6s 4s 20 25 mph 1021.3mb 68f 66f
2:50am 4ft 6s 4s 18 22 mph 1021.9mb 68f 65f
1:50am 4ft 6s 4s 20 22 mph 1022.4mb 68f 65f
12:50am 4.5ft 7s 5s 18 22 mph 1023.2mb 68f 65f
Fri 01/30 11:50pm 4.5ft 7s 5s 18 20 mph 1023.9mb 68f 65f
10:50pm 4ft 6s 5s 16 20 mph 1024.6mb 68f 64f
9:50pm 4.5ft 7s 5s 16 20 mph 1024.9mb 68f 63f
8:50pm 5ft 7s 5s 18 20 mph 1024.8mb 68f 63f
7:50pm 5ft 7s 5s 18 20 mph 1024.8mb 68f 62f
6:50pm 5ft 7s 5s 18 22 mph 1024.7mb 68f 61f
5:50pm 5.5ft 7s 5s 18 22 mph 1024.9mb 68f 61f
4:50pm 5ft 7s 5s 18 22 mph 1024.8mb 68f 60f
3:50pm 5.5ft 7s 5s 18 25 mph 1025.2mb 67f 60f
2:50pm 5ft 7s 5s 18 20 mph 1025.9mb 67f 60f
1:50pm 5.5ft 7s 5s 18 22 mph 1026.3mb 67f 61f
12:50pm 6ft 6s 5s 18 22 mph 1026.8mb 67f 61f
11:50am 6ft 6s 5s 20 25 mph 1027.6mb 67f 61f
10:50am 5ft 6s 5s 22 25 mph 1027.7mb 67f 62f
9:50am 4.5ft 6s 4s 22 29 mph 1027.6mb 67f 62f
8:50am 4.5ft 5s 4s 22 27 mph 1027.2mb 67f 62f
7:50am 3.5ft 5s 4s 22 25 mph 1026.5mb 67f 63f
6:50am 3ft 4s 4s 22 27 mph 1025.8mb 66f 64f
5:50am 1.6ft 3s 3s 22 27 mph 1025.4mb 66f 64f
4:50am 1.3ft 5s 4s 18 20 mph 1025.5mb 65f 62f
3:50am 1.3ft 5s 4s 4 7 mph 1025.4mb 64f 63f
2:50am 1.3ft 5s 4s 4
mph
1025.5mb 65f 63f
1:50am 1.3ft 5s 4s  -  2 mph 1025.5mb 66f 64f
12:50am 1.3ft 5s 4s 2 4 mph 1025.5mb 66f 64f
Thu 01/29 11:50pm 1.3ft 5s 4s  -  mph 1025.9mb 66f 65f
10:50pm 1.3ft 5s 4s 2
mph
1026.2mb 67f 67f
9:50pm 1.6ft 4s 4s 2
mph
1026.1mb 67f 67f
8:50pm 1.6ft 5s 4s 2
mph
1025.6mb 67f 67f
7:50pm 1.3ft 4s 4s 2
mph
1025mb 67f 67f
6:50pm 1.6ft 5s 4s 2 4 mph 1024.3mb 68f 67f
5:50pm 1.6ft 5s 4s 4 7 mph 1023.7mb 69f 67f
4:50pm 1.6ft 4s 4s 4 7 mph 1023.5mb 69f 68f
3:50pm 1.6ft 4s  -   -  2 mph 1023.3mb 70f 70f
2:50pm 1.6ft 5s 4s 2 4 mph 1023.2mb 69f 70f
1:50pm 2ft 4s 4s 4 7 mph 1023.2mb 69f 69f
12:50pm 2ft 4s 4s 7 9 mph 1024mb 69f 69f
11:50am 2ft 4s 4s 7 9 mph 1024.8mb 68f 69f
10:50am 2ft 4s 4s 9 11 mph 1024.7mb 68f 69f
9:50am 2ft 4s 4s 9 11 mph 1024.2mb 68f 69f
8:50am 2ft 4s 4s 11 13 mph 1023.1mb 68f 68f
7:50am 2ft 4s 4s 11 13 mph 1022.8mb 68f 68f
6:50am 2ft 4s 4s 9 11 mph 1022.4mb 68f 68f
5:50am 2.5ft 4s 4s 11 13 mph 1021.7mb 68f 68f
4:50am 2ft 4s 4s 13 16 mph 1021.3mb 68f 68f
3:50am 2ft 4s 4s 11 13 mph 1021.6mb 68f 68f
2:50am 2ft 4s 4s 9 11 mph 1022.2mb 68f 68f
1:50am 2ft 4s 4s 11 13 mph 1022.7mb 68f 68f
12:50am 1.6ft 4s 3s 13
mph
1022.2mb 68f 69f
Wed 01/28 11:50pm 1.6ft 4s 3s 13 16 mph 1021.8mb 68f 69f
10:50pm 1.6ft 4s 3s 11 16 mph 1021.7mb 68f 69f
9:50pm 1.3ft 4s 3s 11 13 mph 1021.8mb 69f 69f
8:50pm 1.3ft 4s 3s 11 13 mph 1021.9mb 69f 69f
7:50pm 1.3ft 4s 3s 13
mph
1021.5mb 69f 68f
6:50pm 1.3ft 4s 3s 11 13 mph 1021.3mb 69f 69f